Time;durP1;ratioP1;P1;durP2;ratioP2;P2;SDS_P1;SDS_P2;PMS_P1;PMS_P2;Temp;Humidity;BMP_temperature;BMP_pressure;BME280_temperature;BME280_humidity;BME280_pressure;Samples;Min_cycle;Max_cycle;Signal;HPM_P1;HPM_P2
2022/11/30 00:02:09;;;;;;;;;;;;;;;;;;4956255;29;19959;-86
2022/11/30 00:04:34;;;;;;;;;;;;;;;;;;4955408;29;20009;-85
2022/11/30 00:06:59;;;;;;;;;;;;;;;;;;4956460;29;19961;-86
2022/11/30 00:09:25;;;;;;;;;;;;;;;;;;4956055;29;19925;-83
2022/11/30 00:11:50;;;;;;;;;;;;;;;;;;4956713;29;20008;-85
2022/11/30 00:14:17;;;;;;;;;;;;;;;;;;4955335;28;20012;-85
2022/11/30 00:16:42;;;;;;;;;;;;;;;;;;4956654;29;19980;-85
2022/11/30 00:19:08;;;;;;;;;;;;;;;;;;4939900;29;19914;-83
2022/11/30 00:21:33;;;;;;;;;;;;;;;;;;4956040;28;19919;-85
2022/11/30 00:23:59;;;;;;;;;;;;;;;;;;4958079;29;19914;-85
2022/11/30 00:26:24;;;;;;;;;;;;;;;;;;4959737;29;19962;-86
2022/11/30 00:28:49;;;;;;;;;;;;;;;;;;4955250;29;20432;-85
2022/11/30 00:31:15;;;;;;;;;;;;;;;;;;4956929;29;19914;-85
2022/11/30 00:33:40;;;;;;;;;;;;;;;;;;4958164;29;20298;-86
2022/11/30 00:36:06;;;;;;;;;;;;;;;;;;4941688;29;19961;-81
2022/11/30 00:38:31;;;;;;;;;;;;;;;;;;4954740;29;20405;-84
2022/11/30 00:40:56;;;;;;;;;;;;;;;;;;4953876;29;19922;-87
2022/11/30 00:43:22;;;;;;;;;;;;;;;;;;4954455;29;20077;-84
2022/11/30 00:45:47;;;;;;;;;;;;;;;;;;4953897;29;19918;-85
2022/11/30 00:48:12;;;;;;;;;;;;;;;;;;4954199;29;19915;-85
2022/11/30 00:50:38;;;;;;;;;;;;;;;;;;4954992;29;20382;-84
2022/11/30 00:53:03;;;;;;;;;;;;;;;;;;4937372;29;19922;-84
2022/11/30 00:55:30;;;;;;;;;;;;;;;;;;4954497;29;19915;-85
2022/11/30 00:57:56;;;;;;;;;;;;;;;;;;4955676;29;19914;-87
2022/11/30 01:00:21;;;;;;;;;;;;;;;;;;4955847;29;20378;-86
2022/11/30 01:02:46;;;;;;;;;;;;;;;;;;4956893;29;19925;-83
2022/11/30 01:05:12;;;;;;;;;;;;;;;;;;4974206;29;20440;-83
2022/11/30 01:07:37;;;;;;;;;;;;;;;;;;4968126;29;19919;-84
2022/11/30 01:10:02;;;;;;;;;;;;;;;;;;4954752;29;19993;-85
2022/11/30 01:12:28;;;;;;;;;;;;;;;;;;4953995;29;20400;-84
2022/11/30 01:14:53;;;;;;;;;;;;;;;;;;4937624;29;19921;-86
2022/11/30 01:17:18;;;;;;;;;;;;;;;;;;4954535;29;20005;-83
2022/11/30 01:19:44;;;;;;;;;;;;;;;;;;4953244;29;19918;-85
2022/11/30 01:22:09;;;;;;;;;;;;;;;;;;4951994;29;19990;-84
2022/11/30 01:24:35;;;;;;;;;;;;;;;;;;4953894;29;19918;-84
2022/11/30 01:27:00;;;;;;;;;;;;;;;;;;4953208;29;19921;-84
2022/11/30 01:29:25;;;;;;;;;;;;;;;;;;4952986;29;19915;-84
2022/11/30 01:31:51;;;;;;;;;;;;;;;;;;4954241;29;20337;-83
2022/11/30 01:34:16;;;;;;;;;;;;;;;;;;4955961;28;19922;-87
2022/11/30 01:36:42;;;;;;;;;;;;;;;;;;4958376;29;19937;-86
2022/11/30 01:39:08;;;;;;;;;;;;;;;;;;4941636;29;19914;-85
2022/11/30 01:41:33;;;;;;;;;;;;;;;;;;4956686;29;20394;-86
2022/11/30 01:43:59;;;;;;;;;;;;;;;;;;4956575;29;19997;-84
2022/11/30 01:46:24;;;;;;;;;;;;;;;;;;4956752;29;19914;-86
2022/11/30 01:48:49;;;;;;;;;;;;;;;;;;4958094;29;19910;-85
2022/11/30 01:51:15;;;;;;;;;;;;;;;;;;4940777;29;20386;-86
2022/11/30 01:53:40;;;;;;;;;;;;;;;;;;4956696;29;19983;-86
2022/11/30 01:56:06;;;;;;;;;;;;;;;;;;4957925;29;20382;-84
2022/11/30 01:58:32;;;;;;;;;;;;;;;;;;4958542;28;19915;-85
2022/11/30 02:00:58;;;;;;;;;;;;;;;;;;4958635;29;19925;-84
2022/11/30 02:03:23;;;;;;;;;;;;;;;;;;4958042;29;20297;-85
2022/11/30 02:05:49;;;;;;;;;;;;;;;;;;4959356;29;19946;-85
2022/11/30 02:08:14;;;;;;;;;;;;;;;;;;4947439;29;20267;-85
2022/11/30 02:10:39;;;;;;;;;;;;;;;;;;4969742;29;19911;-86
2022/11/30 02:13:05;;;;;;;;;;;;;;;;;;4992627;23;19926;-90
2022/11/30 02:15:30;;;;;;;;;;;;;;;;;;4932396;29;19922;-92
2022/11/30 02:17:55;;;;;;;;;;;;;;;;;;4945421;29;19926;-91
2022/11/30 02:20:21;;;;;;;;;;;;;;;;;;4944800;29;19910;-91
2022/11/30 02:22:46;;;;;;;;;;;;;;;;;;4958948;29;19958;-90
2022/11/30 02:25:12;;;;;;;;;;;;;;;;;;4941599;29;19919;-90
2022/11/30 02:27:37;;;;;;;;;;;;;;;;;;4940705;29;20290;-91
2022/11/30 02:30:03;;;;;;;;;;;;;;;;;;4940204;29;20052;-91
2022/11/30 02:32:28;;;;;;;;;;;;;;;;;;4940355;29;20504;-91
2022/11/30 02:34:54;;;;;;;;;;;;;;;;;;4957812;29;19922;-91
2022/11/30 02:37:19;;;;;;;;;;;;;;;;;;4956678;29;19915;-92
2022/11/30 02:39:44;;;;;;;;;;;;;;;;;;4956329;29;19921;-91
2022/11/30 02:42:10;;;;;;;;;;;;;;;;;;4940172;29;20346;-91
2022/11/30 02:44:35;;;;;;;;;;;;;;;;;;4955716;28;19918;-92
2022/11/30 02:47:01;;;;;;;;;;;;;;;;;;4924172;29;20013;-92
2022/11/30 02:49:26;;;;;;;;;;;;;;;;;;4956592;29;20498;-91
2022/11/30 02:51:52;;;;;;;;;;;;;;;;;;4956543;29;19914;-91
2022/11/30 02:54:17;;;;;;;;;;;;;;;;;;4937114;29;20006;-90
2022/11/30 02:56:43;;;;;;;;;;;;;;;;;;4953149;29;19915;-90
2022/11/30 02:59:08;;;;;;;;;;;;;;;;;;4938678;29;19922;-91
2022/11/30 03:01:33;;;;;;;;;;;;;;;;;;4937769;29;19919;-91
2022/11/30 03:03:59;;;;;;;;;;;;;;;;;;4947252;29;19921;-91
2022/11/30 03:06:24;;;;;;;;;;;;;;;;;;4956657;29;19922;-87
2022/11/30 03:08:50;;;;;;;;;;;;;;;;;;4978759;29;19919;-85
2022/11/30 03:11:15;;;;;;;;;;;;;;;;;;4978556;29;19914;-89
2022/11/30 03:13:40;;;;;;;;;;;;;;;;;;4951868;29;19918;-89
2022/11/30 03:16:06;;;;;;;;;;;;;;;;;;4946060;29;19998;-91
2022/11/30 03:18:31;;;;;;;;;;;;;;;;;;4960300;29;19919;-91
2022/11/30 03:20:56;;;;;;;;;;;;;;;;;;4945212;29;20430;-90
2022/11/30 03:23:22;;;;;;;;;;;;;;;;;;4937754;29;19918;-91
2022/11/30 03:25:47;;;;;;;;;;;;;;;;;;4937004;29;20409;-92
2022/11/30 03:28:13;;;;;;;;;;;;;;;;;;4921074;29;19919;-91
2022/11/30 03:30:38;;;;;;;;;;;;;;;;;;4952621;29;20276;-90
2022/11/30 03:33:03;;;;;;;;;;;;;;;;;;4936476;29;19977;-91
2022/11/30 03:35:29;;;;;;;;;;;;;;;;;;4926256;29;19922;-90
2022/11/30 03:37:54;;;;;;;;;;;;;;;;;;4918980;29;19923;-90
2022/11/30 03:40:19;;;;;;;;;;;;;;;;;;4918207;29;19922;-88
2022/11/30 03:42:45;;;;;;;;;;;;;;;;;;4933923;29;19926;-91
2022/11/30 03:45:10;;;;;;;;;;;;;;;;;;4918176;29;20260;-90
2022/11/30 03:47:36;;;;;;;;;;;;;;;;;;4918013;29;20042;-90
2022/11/30 03:50:01;;;;;;;;;;;;;;;;;;4917362;29;20319;-91
2022/11/30 03:52:26;;;;;;;;;;;;;;;;;;4924253;29;19922;-92
2022/11/30 03:54:52;;;;;;;;;;;;;;;;;;4936597;29;19973;-92
2022/11/30 03:57:17;;;;;;;;;;;;;;;;;;4940340;29;19921;-92
2022/11/30 03:59:42;;;;;;;;;;;;;;;;;;4948677;29;19915;-88
2022/11/30 04:02:08;;;;;;;;;;;;;;;;;;4935881;29;19926;-89
2022/11/30 04:04:33;;;;;;;;;;;;;;;;;;4968959;29;20017;-89
2022/11/30 04:06:59;;;;;;;;;;;;;;;;;;4969331;29;19915;-89
2022/11/30 04:09:24;;;;;;;;;;;;;;;;;;4964093;29;19915;-88
2022/11/30 04:11:49;;;;;;;;;;;;;;;;;;4951317;29;19949;-88
2022/11/30 04:14:15;;;;;;;;;;;;;;;;;;4943974;29;19919;-89
2022/11/30 04:16:40;;;;;;;;;;;;;;;;;;4943032;29;19970;-89
2022/11/30 04:19:06;;;;;;;;;;;;;;;;;;4958887;29;19914;-92
2022/11/30 04:21:31;;;;;;;;;;;;;;;;;;4946476;29;19922;-87
2022/11/30 04:23:56;;;;;;;;;;;;;;;;;;4929618;29;19915;-90
2022/11/30 04:26:22;;;;;;;;;;;;;;;;;;4925712;29;19914;-88
2022/11/30 04:28:47;;;;;;;;;;;;;;;;;;4967465;29;19986;-86
2022/11/30 04:31:13;;;;;;;;;;;;;;;;;;4955708;29;19926;-89
2022/11/30 04:33:38;;;;;;;;;;;;;;;;;;4932628;29;20445;-91
2022/11/30 04:36:04;;;;;;;;;;;;;;;;;;4970294;29;19915;-90
2022/11/30 04:38:29;;;;;;;;;;;;;;;;;;4931819;29;19921;-87
2022/11/30 04:40:55;;;;;;;;;;;;;;;;;;4942613;29;19922;-90
2022/11/30 04:43:20;;;;;;;;;;;;;;;;;;4938909;29;19922;-90
2022/11/30 04:45:45;;;;;;;;;;;;;;;;;;4939486;29;20378;-90
2022/11/30 04:48:11;;;;;;;;;;;;;;;;;;4956944;29;20019;-87
2022/11/30 04:50:36;;;;;;;;;;;;;;;;;;4956363;29;19925;-90
2022/11/30 04:53:02;;;;;;;;;;;;;;;;;;4946484;29;19921;-90
2022/11/30 04:55:27;;;;;;;;;;;;;;;;;;4936139;29;19943;-90
2022/11/30 04:57:52;;;;;;;;;;;;;;;;;;4938463;29;20010;-90
2022/11/30 05:00:18;;;;;;;;;;;;;;;;;;4936594;29;19921;-90
2022/11/30 05:02:43;;;;;;;;;;;;;;;;;;4957980;29;19914;-88
2022/11/30 05:05:08;;;;;;;;;;;;;;;;;;4925936;29;19914;-89
2022/11/30 05:07:34;;;;;;;;;;;;;;;;;;4925484;29;19977;-90
2022/11/30 05:09:59;;;;;;;;;;;;;;;;;;4939207;29;19910;-88
2022/11/30 05:12:25;;;;;;;;;;;;;;;;;;4937797;29;20290;-91
2022/11/30 05:14:50;;;;;;;;;;;;;;;;;;4938207;29;19914;-91
2022/11/30 05:17:15;;;;;;;;;;;;;;;;;;4938260;29;20294;-92
2022/11/30 05:19:41;;;;;;;;;;;;;;;;;;4922756;29;19922;-90
2022/11/30 05:22:06;;;;;;;;;;;;;;;;;;4954203;29;19918;-90
2022/11/30 05:24:31;;;;;;;;;;;;;;;;;;4938032;29;19926;-89
2022/11/30 05:26:57;;;;;;;;;;;;;;;;;;4954594;29;20442;-90
2022/11/30 05:29:22;;;;;;;;;;;;;;;;;;4954773;29;19937;-89
2022/11/30 05:31:48;;;;;;;;;;;;;;;;;;4938222;29;19915;-90
2022/11/30 05:34:13;;;;;;;;;;;;;;;;;;4923008;29;19981;-89
2022/11/30 05:36:39;;;;;;;;;;;;;;;;;;4931588;29;20416;-89
2022/11/30 05:39:04;;;;;;;;;;;;;;;;;;4966631;29;19963;-88
2022/11/30 05:41:30;;;;;;;;;;;;;;;;;;4951870;29;19918;-89
2022/11/30 05:43:55;;;;;;;;;;;;;;;;;;4930350;29;19919;-90
2022/11/30 05:46:21;;;;;;;;;;;;;;;;;;4948547;29;19921;-89
2022/11/30 05:48:46;;;;;;;;;;;;;;;;;;4943097;29;20430;-90
2022/11/30 05:51:12;;;;;;;;;;;;;;;;;;4925020;29;20278;-89
2022/11/30 05:53:37;;;;;;;;;;;;;;;;;;4942406;29;20331;-92
2022/11/30 05:56:02;;;;;;;;;;;;;;;;;;4937864;29;19919;-91
2022/11/30 05:58:28;;;;;;;;;;;;;;;;;;4919817;29;19914;-91
2022/11/30 06:00:53;;;;;;;;;;;;;;;;;;4919321;29;19915;-89
2022/11/30 06:03:19;;;;;;;;;;;;;;;;;;4967731;28;20022;-89
2022/11/30 06:05:44;;;;;;;;;;;;;;;;;;4940405;29;20450;-89
2022/11/30 06:08:09;;;;;;;;;;;;;;;;;;4938549;29;20385;-89
2022/11/30 06:10:35;;;;;;;;;;;;;;;;;;4939178;29;19914;-88
2022/11/30 06:13:01;;;;;;;;;;;;;;;;;;4954751;29;20005;-88
2022/11/30 06:15:26;;;;;;;;;;;;;;;;;;4940024;29;19914;-87
2022/11/30 06:17:52;;;;;;;;;;;;;;;;;;4926537;29;19990;-88
2022/11/30 06:20:17;;;;;;;;;;;;;;;;;;4927884;29;20544;-89
2022/11/30 06:22:43;;;;;;;;;;;;;;;;;;4945214;29;20017;-90
2022/11/30 06:25:08;;;;;;;;;;;;;;;;;;4962553;29;20290;-88
2022/11/30 06:27:34;;;;;;;;;;;;;;;;;;4927784;29;20319;-90
2022/11/30 06:30:00;;;;;;;;;;;;;;;;;;4942130;29;19914;-89
2022/11/30 06:32:25;;;;;;;;;;;;;;;;;;4957461;29;19955;-91
2022/11/30 06:34:51;;;;;;;;;;;;;;;;;;4942896;29;20002;-88
2022/11/30 06:37:19;;;;;;;;;;;;;;;;;;4941922;29;19915;-88
2022/11/30 06:39:44;;;;;;;;;;;;;;;;;;4925143;29;19918;-88
2022/11/30 06:42:10;;;;;;;;;;;;;;;;;;4958381;29;20310;-86
2022/11/30 06:44:35;;;;;;;;;;;;;;;;;;4961566;29;19930;-91
2022/11/30 06:47:01;;;;;;;;;;;;;;;;;;4931404;29;19914;-87
2022/11/30 06:49:27;;;;;;;;;;;;;;;;;;4942517;29;19993;-86
2022/11/30 06:51:52;;;;;;;;;;;;;;;;;;4967048;29;19927;-89
2022/11/30 06:54:18;;;;;;;;;;;;;;;;;;4961686;29;19919;-89
2022/11/30 06:56:43;;;;;;;;;;;;;;;;;;4943920;29;19950;-87
2022/11/30 06:59:09;;;;;;;;;;;;;;;;;;4942168;29;19948;-91
2022/11/30 07:01:34;;;;;;;;;;;;;;;;;;4942181;29;20342;-86
2022/11/30 07:04:00;;;;;;;;;;;;;;;;;;4944198;29;20424;-87
2022/11/30 07:06:25;;;;;;;;;;;;;;;;;;4936234;29;20053;-88
2022/11/30 07:08:50;;;;;;;;;;;;;;;;;;4943987;29;19970;-87
2022/11/30 07:11:16;;;;;;;;;;;;;;;;;;4944945;29;20290;-89
2022/11/30 07:13:41;;;;;;;;;;;;;;;;;;4960104;29;19922;-88
2022/11/30 07:16:07;;;;;;;;;;;;;;;;;;4916621;29;19914;-91
2022/11/30 07:18:32;;;;;;;;;;;;;;;;;;4938205;29;19919;-90
2022/11/30 07:20:58;;;;;;;;;;;;;;;;;;4939727;29;20274;-88
2022/11/30 07:26:08;;;;;;;;;;;;;;;;;;4947139;29;19939;-87
2022/11/30 07:28:35;;;;;;;;;;;;;;;;;;4957346;29;19923;-88
2022/11/30 07:31:00;;;;;;;;;;;;;;;;;;4937924;29;20290;-91
2022/11/30 07:33:25;;;;;;;;;;;;;;;;;;4938129;29;19915;-91
2022/11/30 07:35:51;;;;;;;;;;;;;;;;;;4938572;29;19922;-89
2022/11/30 07:38:17;;;;;;;;;;;;;;;;;;4921869;29;19978;-89
2022/11/30 07:40:42;;;;;;;;;;;;;;;;;;4921917;29;19958;-90
2022/11/30 07:43:07;;;;;;;;;;;;;;;;;;4923604;29;19942;-89
2022/11/30 07:45:33;;;;;;;;;;;;;;;;;;4923291;29;19942;-88
2022/11/30 07:47:58;;;;;;;;;;;;;;;;;;4937976;29;19918;-91
2022/11/30 07:50:24;;;;;;;;;;;;;;;;;;4937318;29;20393;-92
2022/11/30 07:52:49;;;;;;;;;;;;;;;;;;4938881;29;19992;-92
2022/11/30 07:55:15;;;;;;;;;;;;;;;;;;4970767;28;19921;-91
2022/11/30 07:57:40;;;;;;;;;;;;;;;;;;4938265;29;19921;-91
2022/11/30 08:00:06;;;;;;;;;;;;;;;;;;4953360;29;20295;-91
2022/11/30 08:02:37;;;;;;;;;;;;;;;;;;4952260;29;19926;-91
2022/11/30 08:05:03;;;;;;;;;;;;;;;;;;4921000;29;19982;-90
2022/11/30 08:07:28;;;;;;;;;;;;;;;;;;4936235;29;19915;-89
2022/11/30 08:09:53;;;;;;;;;;;;;;;;;;4920887;29;19911;-86
2022/11/30 08:15:14;;;;;;;;;;;;;;;;;;4931286;29;19927;-84
2022/11/30 08:17:40;;;;;;;;;;;;;;;;;;4932737;29;19994;-86
2022/11/30 08:20:05;;;;;;;;;;;;;;;;;;4929831;29;19911;-84
2022/11/30 08:22:30;;;;;;;;;;;;;;;;;;4930243;29;20314;-86
2022/11/30 08:24:56;;;;;;;;;;;;;;;;;;4919024;29;19915;-76
2022/11/30 08:27:21;;;;;;;;;;;;;;;;;;4919576;29;19948;-76
2022/11/30 08:29:47;;;;;;;;;;;;;;;;;;4914882;29;19923;-77
2022/11/30 08:32:12;;;;;;;;;;;;;;;;;;4902498;29;20363;-76
2022/11/30 08:34:37;;;;;;;;;;;;;;;;;;4918927;29;19919;-77
2022/11/30 08:37:03;;;;;;;;;;;;;;;;;;4918657;29;19922;-77
2022/11/30 08:39:30;;;;;;;;;;;;;;;;;;4919987;29;19919;-77
2022/11/30 08:41:56;;;;;;;;;;;;;;;;;;4918420;29;19923;-77
2022/11/30 08:44:21;;;;;;;;;;;;;;;;;;4927056;29;19921;-83
2022/11/30 08:46:47;;;;;;;;;;;;;;;;;;4950753;29;19931;-84
2022/11/30 08:49:12;;;;;;;;;;;;;;;;;;4936066;29;19915;-84
2022/11/30 08:51:38;;;;;;;;;;;;;;;;;;4950158;29;19926;-83
2022/11/30 08:54:03;;;;;;;;;;;;;;;;;;4936401;29;20387;-84
2022/11/30 08:56:29;;;;;;;;;;;;;;;;;;4934283;29;19916;-83
2022/11/30 08:58:54;;;;;;;;;;;;;;;;;;4918930;29;19915;-83
2022/11/30 09:01:20;;;;;;;;;;;;;;;;;;4933433;29;19915;-83
2022/11/30 09:03:45;;;;;;;;;;;;;;;;;;4916595;29;20005;-83
2022/11/30 09:06:14;;;;;;;;;;;;;;;;;;4947130;29;19921;-82
2022/11/30 09:08:39;;;;;;;;;;;;;;;;;;4928411;29;19950;-83
2022/11/30 09:11:05;;;;;;;;;;;;;;;;;;4941148;29;20406;-83
2022/11/30 09:13:30;;;;;;;;;;;;;;;;;;4924259;29;19982;-86
2022/11/30 09:15:56;;;;;;;;;;;;;;;;;;4911474;29;19915;-83
2022/11/30 09:18:21;;;;;;;;;;;;;;;;;;4908891;29;19922;-84
2022/11/30 09:20:47;;;;;;;;;;;;;;;;;;4930324;29;19939;-84
2022/11/30 09:23:12;;;;;;;;;;;;;;;;;;4932520;29;19979;-84
2022/11/30 09:25:37;;;;;;;;;;;;;;;;;;4934432;29;19923;-83
2022/11/30 09:28:03;;;;;;;;;;;;;;;;;;4929100;29;20008;-85
2022/11/30 09:30:28;;;;;;;;;;;;;;;;;;4909779;29;19922;-85
2022/11/30 09:32:54;;;;;;;;;;;;;;;;;;4906185;29;19915;-84
2022/11/30 09:35:19;;;;;;;;;;;;;;;;;;4931666;29;19922;-83
2022/11/30 09:37:44;;;;;;;;;;;;;;;;;;4930875;29;19915;-84
2022/11/30 09:40:10;;;;;;;;;;;;;;;;;;4932594;29;19916;-85
2022/11/30 09:42:35;;;;;;;;;;;;;;;;;;4924171;29;19923;-84
2022/11/30 09:45:01;;;;;;;;;;;;;;;;;;4908464;29;19916;-84
2022/11/30 09:47:26;;;;;;;;;;;;;;;;;;4919348;29;20328;-85
2022/11/30 09:49:52;;;;;;;;;;;;;;;;;;4907031;29;19922;-84
2022/11/30 09:52:17;;;;;;;;;;;;;;;;;;4923074;29;19962;-85
2022/11/30 09:54:42;;;;;;;;;;;;;;;;;;4925871;29;19915;-84
2022/11/30 09:57:08;;;;;;;;;;;;;;;;;;4945918;29;20005;-86
2022/11/30 09:59:33;;;;;;;;;;;;;;;;;;4923727;29;20025;-85
2022/11/30 10:01:59;;;;;;;;;;;;;;;;;;4921598;29;19926;-84
2022/11/30 10:04:24;;;;;;;;;;;;;;;;;;4907550;29;20399;-84
2022/11/30 10:06:50;;;;;;;;;;;;;;;;;;4905879;29;20190;-85
2022/11/30 10:09:16;;;;;;;;;;;;;;;;;;4902612;29;19916;-86
2022/11/30 10:11:41;;;;;;;;;;;;;;;;;;4901625;29;20253;-86
2022/11/30 10:14:07;;;;;;;;;;;;;;;;;;4901896;29;19919;-85
2022/11/30 10:16:32;;;;;;;;;;;;;;;;;;4929572;29;19911;-84
2022/11/30 10:18:57;;;;;;;;;;;;;;;;;;4913321;29;20322;-86
2022/11/30 10:21:23;;;;;;;;;;;;;;;;;;4914919;29;19916;-86
2022/11/30 10:23:51;;;;;;;;;;;;;;;;;;4903660;29;20429;-85
2022/11/30 10:26:16;;;;;;;;;;;;;;;;;;4914940;29;19915;-87
2022/11/30 10:28:42;;;;;;;;;;;;;;;;;;4911159;29;20420;-86
2022/11/30 10:31:07;;;;;;;;;;;;;;;;;;4916464;29;20484;-86
2022/11/30 10:33:33;;;;;;;;;;;;;;;;;;4920176;29;19915;-84
2022/11/30 10:35:58;;;;;;;;;;;;;;;;;;4915752;29;19957;-87
2022/11/30 10:38:23;;;;;;;;;;;;;;;;;;4923382;29;19922;-88
2022/11/30 10:40:49;;;;;;;;;;;;;;;;;;4934278;29;19922;-86
2022/11/30 10:43:14;;;;;;;;;;;;;;;;;;4902138;29;19919;-87
2022/11/30 10:45:40;;;;;;;;;;;;;;;;;;4916115;29;19923;-87
2022/11/30 10:48:05;;;;;;;;;;;;;;;;;;4926051;29;19915;-87
2022/11/30 10:50:31;;;;;;;;;;;;;;;;;;4919062;29;19958;-87
2022/11/30 10:52:56;;;;;;;;;;;;;;;;;;4907551;29;19915;-87
2022/11/30 10:55:21;;;;;;;;;;;;;;;;;;4930476;29;19922;-86
2022/11/30 10:57:47;;;;;;;;;;;;;;;;;;4920259;29;20362;-88
2022/11/30 11:00:13;;;;;;;;;;;;;;;;;;4928724;29;20450;-87
2022/11/30 11:02:38;;;;;;;;;;;;;;;;;;4927389;29;19963;-87
2022/11/30 11:05:04;;;;;;;;;;;;;;;;;;4913208;29;20018;-87
2022/11/30 11:07:29;;;;;;;;;;;;;;;;;;4905590;29;19939;-87
2022/11/30 11:09:55;;;;;;;;;;;;;;;;;;4919424;29;20286;-86
2022/11/30 11:12:21;;;;;;;;;;;;;;;;;;4919169;29;20370;-87
2022/11/30 11:14:46;;;;;;;;;;;;;;;;;;4934207;29;19978;-86
2022/11/30 11:17:12;;;;;;;;;;;;;;;;;;4920808;29;19915;-86
2022/11/30 11:19:37;;;;;;;;;;;;;;;;;;4935878;29;19925;-86
2022/11/30 11:22:03;;;;;;;;;;;;;;;;;;4921768;29;19919;-85
2022/11/30 11:24:28;;;;;;;;;;;;;;;;;;4924867;29;20418;-86
2022/11/30 11:26:53;;;;;;;;;;;;;;;;;;4926642;29;19938;-85
2022/11/30 11:29:30;;;;;;;;;;;;;;;;;;4922590;29;20375;-85
2022/11/30 11:31:56;;;;;;;;;;;;;;;;;;4905879;29;20369;-87
2022/11/30 11:34:21;;;;;;;;;;;;;;;;;;4919167;29;19922;-86
2022/11/30 11:36:47;;;;;;;;;;;;;;;;;;4920143;29;20359;-87
2022/11/30 11:39:12;;;;;;;;;;;;;;;;;;4921265;29;19916;-87
2022/11/30 11:41:37;;;;;;;;;;;;;;;;;;4933837;29;19961;-87
2022/11/30 11:44:03;;;;;;;;;;;;;;;;;;4918893;29;20235;-87
2022/11/30 11:46:28;;;;;;;;;;;;;;;;;;4920022;29;19966;-87
2022/11/30 11:48:54;;;;;;;;;;;;;;;;;;4933585;29;19918;-86
2022/11/30 11:51:19;;;;;;;;;;;;;;;;;;4916929;29;19919;-86
2022/11/30 11:53:45;;;;;;;;;;;;;;;;;;4917946;29;20292;-86
2022/11/30 11:56:10;;;;;;;;;;;;;;;;;;4919550;29;19922;-86
2022/11/30 11:58:35;;;;;;;;;;;;;;;;;;4919003;29;19919;-85
2022/11/30 12:01:01;;;;;;;;;;;;;;;;;;4919669;29;20371;-84
2022/11/30 12:03:26;;;;;;;;;;;;;;;;;;4917854;29;19971;-86
2022/11/30 12:05:52;;;;;;;;;;;;;;;;;;4917873;29;19915;-86
2022/11/30 12:08:18;;;;;;;;;;;;;;;;;;4917939;29;19915;-87
2022/11/30 12:10:43;;;;;;;;;;;;;;;;;;4917927;29;20259;-87
2022/11/30 12:13:08;;;;;;;;;;;;;;;;;;4917304;29;20298;-87
2022/11/30 12:15:34;;;;;;;;;;;;;;;;;;4915536;29;19986;-86
2022/11/30 12:17:59;;;;;;;;;;;;;;;;;;4931041;29;20334;-86
2022/11/30 12:20:24;;;;;;;;;;;;;;;;;;4917828;29;19915;-87
2022/11/30 12:22:50;;;;;;;;;;;;;;;;;;4915166;29;20347;-87
2022/11/30 12:25:15;;;;;;;;;;;;;;;;;;4917209;29;19915;-86
2022/11/30 12:27:41;;;;;;;;;;;;;;;;;;4901125;29;19915;-86
2022/11/30 12:30:08;;;;;;;;;;;;;;;;;;4916994;29;19929;-86
2022/11/30 12:32:34;;;;;;;;;;;;;;;;;;4931356;29;19915;-87
2022/11/30 12:35:06;;;;;;;;;;;;;;;;;;4916440;29;20139;-88
2022/11/30 12:37:35;;;;;;;;;;;;;;;;;;4899742;29;19922;-87
2022/11/30 12:40:00;;;;;;;;;;;;;;;;;;4915751;29;19915;-87
2022/11/30 12:42:28;;;;;;;;;;;;;;;;;;4930045;29;20013;-86
2022/11/30 12:44:54;;;;;;;;;;;;;;;;;;4931111;29;20002;-87
2022/11/30 12:47:22;;;;;;;;;;;;;;;;;;4916381;29;19948;-86
2022/11/30 12:49:50;;;;;;;;;;;;;;;;;;4899901;29;19923;-85
2022/11/30 12:52:18;;;;;;;;;;;;;;;;;;4915857;29;19974;-86
2022/11/30 12:54:46;;;;;;;;;;;;;;;;;;4917096;29;20295;-85
2022/11/30 12:57:11;;;;;;;;;;;;;;;;;;4915106;29;19918;-84
2022/11/30 12:59:39;;;;;;;;;;;;;;;;;;4914864;29;19915;-87
2022/11/30 13:02:20;;;;;;;;;;;;;;;;;;4916214;29;19930;-86
2022/11/30 13:04:47;;;;;;;;;;;;;;;;;;4914923;29;19923;-88
2022/11/30 13:07:13;;;;;;;;;;;;;;;;;;4919300;29;19923;-87
2022/11/30 13:09:38;;;;;;;;;;;;;;;;;;4916043;29;19963;-87
2022/11/30 13:12:04;;;;;;;;;;;;;;;;;;4915565;29;20010;-86
2022/11/30 13:14:29;;;;;;;;;;;;;;;;;;4913937;29;19919;-87
2022/11/30 13:16:55;;;;;;;;;;;;;;;;;;4915052;29;19974;-87
2022/11/30 13:19:20;;;;;;;;;;;;;;;;;;4916570;29;19926;-86
2022/11/30 13:21:45;;;;;;;;;;;;;;;;;;4916320;29;20391;-86
2022/11/30 13:24:11;;;;;;;;;;;;;;;;;;4915689;29;19915;-87
2022/11/30 13:26:37;;;;;;;;;;;;;;;;;;4916625;29;20018;-87
2022/11/30 13:29:02;;;;;;;;;;;;;;;;;;4918920;29;19922;-86
2022/11/30 13:31:28;;;;;;;;;;;;;;;;;;4920570;29;19938;-87
2022/11/30 13:33:53;;;;;;;;;;;;;;;;;;4920855;29;19912;-87
2022/11/30 13:36:19;;;;;;;;;;;;;;;;;;4920051;29;19915;-85
2022/11/30 13:38:44;;;;;;;;;;;;;;;;;;4922423;29;19966;-86
2022/11/30 13:41:10;;;;;;;;;;;;;;;;;;4924147;29;19934;-85
2022/11/30 13:43:36;;;;;;;;;;;;;;;;;;4957014;28;20041;-86
2022/11/30 13:46:01;;;;;;;;;;;;;;;;;;4916247;29;19911;-86
2022/11/30 13:48:27;;;;;;;;;;;;;;;;;;4929332;29;19945;-87
2022/11/30 13:50:52;;;;;;;;;;;;;;;;;;4927259;29;19920;-86
2022/11/30 13:53:18;;;;;;;;;;;;;;;;;;4934175;29;20297;-86
2022/11/30 13:55:46;;;;;;;;;;;;;;;;;;4919614;29;19922;-86
2022/11/30 13:58:11;;;;;;;;;;;;;;;;;;4917388;29;20298;-86
2022/11/30 14:00:37;;;;;;;;;;;;;;;;;;4919473;29;20375;-87
2022/11/30 14:03:02;;;;;;;;;;;;;;;;;;4918962;29;19923;-86
2022/11/30 14:05:28;;;;;;;;;;;;;;;;;;4919128;29;20298;-87
2022/11/30 14:07:53;;;;;;;;;;;;;;;;;;4918744;29;19952;-87
2022/11/30 14:10:19;;;;;;;;;;;;;;;;;;4933710;29;19923;-87
2022/11/30 14:12:44;;;;;;;;;;;;;;;;;;4917578;29;20389;-87
2022/11/30 14:15:10;;;;;;;;;;;;;;;;;;4919381;29;20335;-87
2022/11/30 14:17:35;;;;;;;;;;;;;;;;;;4919123;29;20379;-86
2022/11/30 14:20:00;;;;;;;;;;;;;;;;;;4934244;29;19922;-86
2022/11/30 14:22:26;;;;;;;;;;;;;;;;;;4919140;29;19919;-86
2022/11/30 14:24:51;;;;;;;;;;;;;;;;;;4919013;29;19911;-87
2022/11/30 14:27:17;;;;;;;;;;;;;;;;;;4919625;29;20347;-87
2022/11/30 14:29:42;;;;;;;;;;;;;;;;;;4917971;29;19923;-87
2022/11/30 14:32:08;;;;;;;;;;;;;;;;;;4918920;29;19958;-87
2022/11/30 14:34:33;;;;;;;;;;;;;;;;;;4921649;29;19926;-88
2022/11/30 14:36:59;;;;;;;;;;;;;;;;;;4919349;29;19915;-87
2022/11/30 14:39:25;;;;;;;;;;;;;;;;;;4916562;29;19915;-86
2022/11/30 14:41:50;;;;;;;;;;;;;;;;;;4918453;29;20394;-87
2022/11/30 14:44:16;;;;;;;;;;;;;;;;;;4918462;29;19915;-87
2022/11/30 14:46:41;;;;;;;;;;;;;;;;;;4918488;29;19915;-87
2022/11/30 14:49:07;;;;;;;;;;;;;;;;;;4919019;29;19915;-86
2022/11/30 14:51:33;;;;;;;;;;;;;;;;;;4936723;29;20448;-88
2022/11/30 14:53:58;;;;;;;;;;;;;;;;;;4923836;29;20290;-86
2022/11/30 14:56:24;;;;;;;;;;;;;;;;;;4938408;29;19922;-87
2022/11/30 14:58:50;;;;;;;;;;;;;;;;;;4919153;29;20006;-87
2022/11/30 15:01:15;;;;;;;;;;;;;;;;;;4934558;29;20358;-87
2022/11/30 15:03:41;;;;;;;;;;;;;;;;;;4901554;29;19919;-87
2022/11/30 15:06:06;;;;;;;;;;;;;;;;;;4917665;29;20006;-88
2022/11/30 15:08:32;;;;;;;;;;;;;;;;;;4918471;29;19962;-87
2022/11/30 15:10:57;;;;;;;;;;;;;;;;;;4919577;29;20014;-88
2022/11/30 15:13:23;;;;;;;;;;;;;;;;;;4921225;29;19951;-86
2022/11/30 15:15:48;;;;;;;;;;;;;;;;;;4920815;29;19918;-87
2022/11/30 15:18:15;;;;;;;;;;;;;;;;;;4921010;29;20329;-86
2022/11/30 15:20:40;;;;;;;;;;;;;;;;;;4918898;29;19962;-86
2022/11/30 15:23:06;;;;;;;;;;;;;;;;;;4919855;29;19950;-86
2022/11/30 15:25:31;;;;;;;;;;;;;;;;;;4918530;29;19915;-87
2022/11/30 15:27:57;;;;;;;;;;;;;;;;;;4918478;29;20390;-85
2022/11/30 15:30:22;;;;;;;;;;;;;;;;;;4933526;29;20367;-86
2022/11/30 15:32:48;;;;;;;;;;;;;;;;;;4916683;29;20411;-87
2022/11/30 15:35:13;;;;;;;;;;;;;;;;;;4917520;29;20276;-87
2022/11/30 15:37:39;;;;;;;;;;;;;;;;;;4918636;29;19926;-87
2022/11/30 15:40:04;;;;;;;;;;;;;;;;;;4917432;29;19966;-86
2022/11/30 15:42:29;;;;;;;;;;;;;;;;;;4918234;29;20272;-87
2022/11/30 15:44:55;;;;;;;;;;;;;;;;;;4917525;29;19998;-86
2022/11/30 15:47:20;;;;;;;;;;;;;;;;;;4917769;29;20367;-86
2022/11/30 15:49:46;;;;;;;;;;;;;;;;;;4917850;29;19915;-86
2022/11/30 15:52:11;;;;;;;;;;;;;;;;;;4932914;29;19927;-86
2022/11/30 15:54:36;;;;;;;;;;;;;;;;;;4917976;29;20268;-85
2022/11/30 15:57:02;;;;;;;;;;;;;;;;;;4918939;29;20283;-86
2022/11/30 15:59:29;;;;;;;;;;;;;;;;;;4923817;29;19931;-83
2022/11/30 16:02:06;;;;;;;;;;;;;;;;;;4925446;29;20082;-85
2022/11/30 16:04:32;;;;;;;;;;;;;;;;;;4909755;29;19924;-85
2022/11/30 16:06:57;;;;;;;;;;;;;;;;;;4919207;29;19919;-85
2022/11/30 16:09:23;;;;;;;;;;;;;;;;;;4902758;29;19915;-84
2022/11/30 16:11:48;;;;;;;;;;;;;;;;;;4903010;29;19978;-84
2022/11/30 16:14:14;;;;;;;;;;;;;;;;;;4918061;29;19926;-84
2022/11/30 16:16:40;;;;;;;;;;;;;;;;;;4920101;29;20054;-83
2022/11/30 16:19:05;;;;;;;;;;;;;;;;;;4919035;29;20455;-83
2022/11/30 16:21:31;;;;;;;;;;;;;;;;;;4922061;29;19940;-84
2022/11/30 16:23:56;;;;;;;;;;;;;;;;;;4922658;29;19922;-85
2022/11/30 16:26:22;;;;;;;;;;;;;;;;;;4923675;29;19970;-84
2022/11/30 16:28:47;;;;;;;;;;;;;;;;;;4938260;29;19938;-83
2022/11/30 16:31:13;;;;;;;;;;;;;;;;;;4923139;29;19915;-83
2022/11/30 16:33:38;;;;;;;;;;;;;;;;;;4924569;29;20430;-84
2022/11/30 16:36:05;;;;;;;;;;;;;;;;;;4922944;29;19982;-83
2022/11/30 16:38:30;;;;;;;;;;;;;;;;;;4926174;29;19962;-84
2022/11/30 16:40:56;;;;;;;;;;;;;;;;;;4927454;29;19915;-84